createdAt,value
2022-12-13T00:00:56.122Z,-7.10
2022-12-13T00:02:29.174Z,-7.00
2022-12-13T00:04:04.051Z,-6.40
2022-12-13T00:05:44.672Z,-6.50
2022-12-13T00:07:17.602Z,-6.50
2022-12-13T00:08:50.672Z,-7.10
2022-12-13T00:10:23.659Z,-6.60
2022-12-13T00:11:56.643Z,-6.30
2022-12-13T00:13:30.140Z,-7.40
2022-12-13T00:15:03.196Z,-6.60
2022-12-13T00:16:36.242Z,-7.00
2022-12-13T00:18:09.275Z,-6.60
2022-12-13T00:19:42.249Z,-6.60
2022-12-13T00:21:19.523Z,-6.60
2022-12-13T00:22:53.311Z,-6.60
2022-12-13T00:24:26.219Z,-6.70
2022-12-13T00:26:04.407Z,-6.60
2022-12-13T00:27:37.373Z,-6.30
2022-12-13T00:29:11.991Z,-6.70
2022-12-13T00:30:45.216Z,-6.30
2022-12-13T00:32:18.297Z,-7.50
2022-12-13T00:33:51.367Z,-6.80
2022-12-13T00:35:24.628Z,-6.90
2022-12-13T00:37:00.154Z,-5.90
2022-12-13T00:38:33.259Z,-6.20
2022-12-13T00:40:07.065Z,-6.30
2022-12-13T00:41:40.377Z,-6.20
2022-12-13T00:43:13.617Z,-6.70
2022-12-13T00:44:46.524Z,-6.80
2022-12-13T00:46:21.363Z,-5.90
2022-12-13T00:47:54.309Z,-6.50
2022-12-13T00:49:27.522Z,-6.50
2022-12-13T00:50:59.455Z,-7.20
2022-12-13T00:52:35.331Z,-7.20
2022-12-13T00:54:08.242Z,-8.50
2022-12-13T00:55:42.315Z,-6.00
2022-12-13T00:57:15.279Z,-7.00
2022-12-13T00:58:52.218Z,-7.00
2022-12-13T01:00:28.209Z,-7.10
2022-12-13T01:02:01.230Z,-7.90
2022-12-13T01:03:34.337Z,-6.90
2022-12-13T01:05:07.940Z,-6.80
2022-12-13T01:06:42.911Z,-6.60
2022-12-13T01:08:17.351Z,-7.30
2022-12-13T01:09:50.335Z,-6.50
2022-12-13T01:11:23.578Z,-7.10
2022-12-13T01:12:56.555Z,-6.80
2022-12-13T01:14:30.633Z,-7.40
2022-12-13T01:16:05.404Z,-8.70
2022-12-13T01:17:38.349Z,-7.40
2022-12-13T01:19:11.433Z,-7.50
2022-12-13T01:20:43.500Z,-7.50
2022-12-13T01:22:16.430Z,-7.50
2022-12-13T01:23:50.789Z,-7.00
2022-12-13T01:25:23.663Z,-7.40
2022-12-13T01:26:57.178Z,-7.50
2022-12-13T01:28:30.335Z,-7.40
2022-12-13T01:30:03.212Z,-7.50
2022-12-13T01:31:41.311Z,-7.50
2022-12-13T01:33:14.695Z,-6.50
2022-12-13T01:34:47.498Z,-7.50
2022-12-13T01:36:27.935Z,-6.50
2022-12-13T01:38:01.121Z,-7.50
2022-12-13T01:39:51.314Z,-7.50
2022-12-13T01:41:34.138Z,-7.40
2022-12-13T01:43:14.504Z,-7.40
2022-12-13T01:45:06.135Z,-7.40
2022-12-13T01:46:39.109Z,-7.40
2022-12-13T01:48:18.628Z,-7.40
2022-12-13T01:49:52.855Z,-6.50
2022-12-13T01:51:29.878Z,-7.40
2022-12-13T01:53:05.764Z,-7.30
2022-12-13T01:54:46.843Z,-7.40
2022-12-13T01:56:24.736Z,-7.40
2022-12-13T01:58:01.606Z,-7.40
2022-12-13T01:59:35.755Z,-7.50
2022-12-13T02:01:09.949Z,-7.50
2022-12-13T02:02:43.097Z,-7.50
2022-12-13T02:04:17.729Z,-7.50
2022-12-13T02:05:57.297Z,-7.50
2022-12-13T02:07:36.169Z,-7.50
2022-12-13T02:09:10.084Z,-7.50
2022-12-13T02:10:44.740Z,-7.60
2022-12-13T02:12:18.126Z,-7.50
2022-12-13T02:13:50.861Z,-7.50
2022-12-13T02:15:24.317Z,-7.50
2022-12-13T02:17:04.648Z,-7.50
2022-12-13T02:18:54.376Z,-7.50
2022-12-13T02:21:09.176Z,-7.50
2022-12-13T02:22:56.901Z,-7.50
2022-12-13T02:24:58.758Z,-7.40
2022-12-13T02:26:47.202Z,-7.40
2022-12-13T02:28:36.389Z,-7.30
2022-12-13T02:30:27.907Z,-7.40
2022-12-13T02:32:05.875Z,-7.50
2022-12-13T02:33:48.786Z,-7.40
2022-12-13T02:35:27.353Z,-7.40
2022-12-13T02:37:17.984Z,-7.40
2022-12-13T02:38:59.229Z,-7.50
2022-12-13T02:40:37.521Z,-7.40
2022-12-13T02:42:21.961Z,-7.50
2022-12-13T02:44:01.420Z,-7.50
2022-12-13T02:45:40.352Z,-7.60
2022-12-13T02:47:21.721Z,-7.60
2022-12-13T02:48:59.122Z,-7.70
2022-12-13T02:50:32.891Z,-7.80
2022-12-13T02:52:09.247Z,-7.80
2022-12-13T02:53:47.300Z,-7.80
2022-12-13T02:55:23.956Z,-7.90
2022-12-13T02:57:01.332Z,-7.90
2022-12-13T02:58:38.615Z,-7.90
2022-12-13T03:00:16.547Z,-7.90
2022-12-13T03:02:10.408Z,-7.80
2022-12-13T03:03:49.439Z,-7.80
2022-12-13T03:05:46.403Z,-7.80
2022-12-13T03:07:27.985Z,-7.80
2022-12-13T03:09:15.122Z,-7.80
2022-12-13T03:11:00.068Z,-7.80
2022-12-13T03:12:56.463Z,-7.80
2022-12-13T03:14:31.565Z,-7.80
2022-12-13T03:16:22.499Z,-7.80
2022-12-13T03:18:03.757Z,-7.80
2022-12-13T03:19:36.983Z,-7.80
2022-12-13T03:21:12.339Z,-7.80
2022-12-13T03:22:45.442Z,-7.80
2022-12-13T03:24:20.186Z,-7.80
2022-12-13T03:25:57.012Z,-7.80
2022-12-13T03:27:29.887Z,-7.80
2022-12-13T03:29:02.782Z,-7.90
2022-12-13T03:30:36.781Z,-7.80
2022-12-13T03:32:09.841Z,-7.80
2022-12-13T03:33:44.004Z,-7.80
2022-12-13T03:35:21.871Z,-7.90
2022-12-13T03:36:55.464Z,-7.90
2022-12-13T03:38:29.261Z,-8.00
2022-12-13T03:40:02.340Z,-8.00
2022-12-13T03:41:35.962Z,-8.00
2022-12-13T03:43:08.953Z,-8.00
2022-12-13T03:44:41.863Z,-8.00
2022-12-13T03:46:15.497Z,-8.00
2022-12-13T03:47:48.406Z,-8.00
2022-12-13T03:49:22.638Z,-8.00
2022-12-13T03:50:56.076Z,-8.00
2022-12-13T03:52:28.999Z,-8.10
2022-12-13T03:54:01.868Z,-8.00
2022-12-13T03:55:34.942Z,-8.00
2022-12-13T03:57:07.840Z,-8.00
2022-12-13T03:58:42.079Z,-8.00
2022-12-13T04:00:15.966Z,-8.00
2022-12-13T04:01:49.167Z,-8.00
2022-12-13T04:03:22.080Z,-8.00
2022-12-13T04:04:56.396Z,-8.00
2022-12-13T04:06:33.716Z,-8.00
2022-12-13T04:08:22.244Z,-8.00
2022-12-13T04:09:55.453Z,-8.00
2022-12-13T04:11:45.680Z,-8.00
2022-12-13T04:13:33.724Z,-8.00
2022-12-13T04:15:08.049Z,-7.90
2022-12-13T04:16:40.919Z,-8.00
2022-12-13T04:18:13.866Z,-8.00
2022-12-13T04:19:46.765Z,-8.00
2022-12-13T04:21:21.049Z,-8.00
2022-12-13T04:22:53.939Z,-8.10
2022-12-13T04:24:31.818Z,-8.10
2022-12-13T04:26:05.300Z,-8.10
2022-12-13T04:27:38.288Z,-8.20
2022-12-13T04:29:11.135Z,-8.20
2022-12-13T04:30:44.040Z,-8.30
2022-12-13T04:32:26.364Z,-8.30
2022-12-13T04:34:00.161Z,-8.30
2022-12-13T04:35:32.086Z,-8.30
2022-12-13T04:37:06.404Z,-8.30
2022-12-13T04:38:39.329Z,-8.30
2022-12-13T04:40:12.721Z,-8.30
2022-12-13T04:41:45.441Z,-8.30
2022-12-13T04:43:18.635Z,-8.30
2022-12-13T04:44:51.670Z,-8.30
2022-12-13T04:46:25.365Z,-8.20
2022-12-13T04:47:58.387Z,-8.20
2022-12-13T04:49:31.751Z,-8.30
2022-12-13T04:51:04.649Z,-8.30
2022-12-13T04:52:39.694Z,-8.30
2022-12-13T04:54:23.972Z,-8.30
2022-12-13T04:55:57.819Z,-8.40
2022-12-13T04:57:30.845Z,-8.40
2022-12-13T04:59:03.796Z,-8.40
2022-12-13T05:00:36.906Z,-8.40
2022-12-13T05:02:11.796Z,-8.30
2022-12-13T05:03:44.880Z,-8.20
2022-12-13T05:05:18.599Z,-8.20
2022-12-13T05:06:51.692Z,-8.20
2022-12-13T05:08:26.022Z,-8.10
2022-12-13T05:09:58.952Z,-8.10
2022-12-13T05:11:35.481Z,-8.10
2022-12-13T05:13:09.148Z,-8.10
2022-12-13T05:14:42.019Z,-8.10
2022-12-13T05:16:15.939Z,-8.10
2022-12-13T05:17:48.880Z,-8.10
2022-12-13T05:19:21.742Z,-8.20
2022-12-13T05:21:05.117Z,-8.20
2022-12-13T05:22:41.044Z,-8.30
2022-12-13T05:24:15.275Z,-8.30
2022-12-13T05:25:48.237Z,-8.30
2022-12-13T05:27:25.863Z,-8.40
2022-12-13T05:29:00.412Z,-8.40
2022-12-13T05:30:33.850Z,-8.40
2022-12-13T05:32:06.614Z,-8.40
2022-12-13T05:33:39.713Z,-8.40
2022-12-13T05:35:13.185Z,-8.40
2022-12-13T05:36:46.395Z,-8.40
2022-12-13T05:38:19.284Z,-8.40
2022-12-13T05:39:53.527Z,-8.40
2022-12-13T05:41:30.439Z,-8.30
2022-12-13T05:43:03.466Z,-8.30
2022-12-13T05:44:54.686Z,-8.30
2022-12-13T05:46:27.625Z,-8.30
2022-12-13T05:48:02.331Z,-8.30
2022-12-13T05:49:37.385Z,-8.20
2022-12-13T05:51:24.800Z,-8.20
2022-12-13T05:52:57.879Z,-8.20
2022-12-13T05:54:30.823Z,-8.20
2022-12-13T05:56:05.444Z,-8.20
2022-12-13T05:57:38.927Z,-8.20
2022-12-13T05:59:11.822Z,-8.20
2022-12-13T06:00:44.872Z,-8.10
2022-12-13T06:02:21.547Z,-8.10
2022-12-13T06:03:55.034Z,-8.10
2022-12-13T06:05:32.194Z,-8.10
2022-12-13T06:07:05.136Z,-8.10
2022-12-13T06:08:40.718Z,-8.00
2022-12-13T06:10:13.778Z,-8.10
2022-12-13T06:12:02.522Z,-8.10
2022-12-13T06:13:35.912Z,-8.10
2022-12-13T06:15:21.788Z,-8.10
2022-12-13T06:16:55.819Z,-8.20
2022-12-13T06:18:28.753Z,-8.20
2022-12-13T06:20:01.943Z,-8.20
2022-12-13T06:21:45.533Z,-8.20
2022-12-13T06:23:25.048Z,-8.20
2022-12-13T06:24:57.978Z,-8.20
2022-12-13T06:26:30.816Z,-8.20
2022-12-13T06:28:05.456Z,-8.30
2022-12-13T06:29:38.762Z,-8.20
2022-12-13T06:31:11.969Z,-8.20
2022-12-13T06:32:48.875Z,-8.30
2022-12-13T06:34:21.724Z,-8.30
2022-12-13T06:35:58.279Z,-8.40
2022-12-13T06:37:31.279Z,-8.40
2022-12-13T06:39:04.227Z,-8.30
2022-12-13T06:40:37.153Z,-8.30
2022-12-13T06:42:22.009Z,-8.40
2022-12-13T06:43:56.927Z,-8.40
2022-12-13T06:45:29.842Z,-8.40
2022-12-13T06:47:11.164Z,-8.40
2022-12-13T06:48:46.002Z,-8.40
2022-12-13T06:50:18.963Z,-8.30
2022-12-13T06:51:51.823Z,-8.30
2022-12-13T06:53:24.865Z,-8.30
2022-12-13T06:54:59.998Z,-8.30
2022-12-13T06:56:33.748Z,-8.30
2022-12-13T06:58:06.730Z,-8.20
2022-12-13T06:59:41.671Z,-8.30
2022-12-13T07:01:24.132Z,-8.30
2022-12-13T07:02:57.855Z,-8.30
2022-12-13T07:04:31.338Z,-8.20
2022-12-13T07:06:07.525Z,-8.30
2022-12-13T07:07:40.421Z,-8.30
2022-12-13T07:09:13.343Z,-8.30
2022-12-13T07:10:46.302Z,-8.30
2022-12-13T07:12:20.886Z,-8.30
2022-12-13T07:13:54.828Z,-8.30
2022-12-13T07:15:54.350Z,-8.20
2022-12-13T07:17:34.725Z,-8.20
2022-12-13T07:19:22.752Z,-8.20
2022-12-13T07:20:57.084Z,-8.20
2022-12-13T07:22:35.238Z,-8.20
2022-12-13T07:24:09.380Z,-8.10
2022-12-13T07:25:42.413Z,-8.00
2022-12-13T07:27:15.324Z,-8.10
2022-12-13T07:28:53.063Z,-8.10
2022-12-13T07:30:28.379Z,-8.10
2022-12-13T07:32:02.607Z,-8.10
2022-12-13T07:33:35.972Z,-8.10
2022-12-13T07:35:08.993Z,-8.10
2022-12-13T07:36:41.949Z,-8.20
2022-12-13T07:38:14.797Z,-8.20
2022-12-13T07:39:47.781Z,-8.20
2022-12-13T07:41:24.034Z,-8.10
2022-12-13T07:42:58.018Z,-8.10
2022-12-13T07:44:30.945Z,-8.00
2022-12-13T07:46:05.587Z,-8.00
2022-12-13T07:47:40.102Z,-8.00
2022-12-13T07:49:13.439Z,-7.90
2022-12-13T07:50:46.325Z,-7.90
2022-12-13T07:52:27.774Z,-7.90
2022-12-13T07:54:01.061Z,-7.90
2022-12-13T07:55:39.786Z,-7.90
2022-12-13T07:57:13.253Z,-7.90
2022-12-13T07:58:47.388Z,-7.90
2022-12-13T08:00:21.173Z,-7.90
2022-12-13T08:01:54.345Z,-7.90
2022-12-13T08:03:28.973Z,-7.80
2022-12-13T08:05:15.534Z,-7.80
2022-12-13T08:06:55.293Z,-7.80
2022-12-13T08:08:30.807Z,-7.70
2022-12-13T08:10:04.725Z,-7.60
2022-12-13T08:11:37.595Z,-7.50
2022-12-13T08:13:10.710Z,-7.40
2022-12-13T08:14:43.703Z,-7.30
2022-12-13T08:16:26.670Z,-7.30
2022-12-13T08:18:01.839Z,-7.20
2022-12-13T08:19:36.077Z,-7.10
2022-12-13T08:21:37.276Z,-7.10
2022-12-13T08:23:03.082Z,-7.10
2022-12-13T08:24:36.673Z,-7.00
2022-12-13T08:26:09.707Z,-7.00
2022-12-13T08:27:42.947Z,-7.00
2022-12-13T08:29:23.564Z,-6.90
2022-12-13T08:31:11.488Z,-6.90
2022-12-13T08:32:44.845Z,-6.90
2022-12-13T08:34:17.559Z,-6.90
2022-12-13T08:35:51.952Z,-6.80
2022-12-13T08:37:24.953Z,-6.80
2022-12-13T08:38:58.575Z,-6.70
2022-12-13T08:40:31.489Z,-6.70
2022-12-13T08:42:16.146Z,-6.60
2022-12-13T08:43:51.230Z,-6.60
2022-12-13T08:45:25.651Z,-6.50
2022-12-13T08:46:58.661Z,-6.50
2022-12-13T08:48:31.747Z,-6.40
2022-12-13T08:50:05.620Z,-6.40
2022-12-13T08:51:39.873Z,-6.40
2022-12-13T08:53:28.995Z,-6.40
2022-12-13T08:55:03.969Z,-6.40
2022-12-13T08:56:37.002Z,-6.30
2022-12-13T08:58:10.073Z,-6.30
2022-12-13T08:59:42.966Z,-6.30
2022-12-13T09:01:15.889Z,-6.30
2022-12-13T09:02:49.168Z,-6.20
2022-12-13T09:04:31.607Z,-6.20
2022-12-13T09:06:10.420Z,-6.20
2022-12-13T09:07:44.683Z,-6.10
2022-12-13T09:09:17.959Z,-6.10
2022-12-13T09:10:59.403Z,-6.00
2022-12-13T09:12:32.540Z,-6.00
2022-12-13T09:14:05.635Z,-6.00
2022-12-13T09:15:46.154Z,-5.50
2022-12-13T09:17:24.192Z,-5.90
2022-12-13T09:18:57.504Z,-5.80
2022-12-13T09:20:30.428Z,-5.70
2022-12-13T09:22:03.413Z,-5.70
2022-12-13T09:23:38.110Z,-5.60
2022-12-13T09:25:24.300Z,-5.60
2022-12-13T09:26:57.616Z,-5.50
2022-12-13T09:28:31.155Z,-5.40
2022-12-13T09:30:05.662Z,-5.40
2022-12-13T09:31:40.335Z,-5.30
2022-12-13T09:33:17.874Z,-5.20
2022-12-13T09:35:03.923Z,-5.10
2022-12-13T09:36:36.871Z,-5.10
2022-12-13T09:38:09.853Z,-5.00
2022-12-13T09:39:44.592Z,-5.00
2022-12-13T09:41:28.616Z,-4.90
2022-12-13T09:43:12.954Z,-4.90
2022-12-13T09:45:03.188Z,-4.90
2022-12-13T09:46:44.544Z,-4.80
2022-12-13T09:48:22.509Z,-4.80
2022-12-13T09:49:56.386Z,-4.80
2022-12-13T09:51:41.596Z,-4.70
2022-12-13T09:53:33.591Z,-4.60
2022-12-13T09:55:21.141Z,-4.70
2022-12-13T09:56:56.580Z,-4.70
2022-12-13T09:58:31.788Z,-4.70
2022-12-13T10:00:10.985Z,-4.60
2022-12-13T10:01:44.190Z,-4.60
2022-12-13T10:03:19.997Z,-4.60
2022-12-13T10:04:53.908Z,-4.60
2022-12-13T10:06:34.671Z,-4.60
2022-12-13T10:08:10.277Z,-4.50
2022-12-13T10:09:43.121Z,-4.50
2022-12-13T10:11:19.209Z,-4.50
2022-12-13T10:12:58.600Z,-4.50
2022-12-13T10:14:39.617Z,-4.50
2022-12-13T10:16:23.335Z,-4.50
2022-12-13T10:17:57.251Z,-4.40
2022-12-13T10:19:40.168Z,-4.40
2022-12-13T10:21:16.747Z,-4.40
2022-12-13T10:23:15.066Z,-4.30
2022-12-13T10:24:51.362Z,-4.30
2022-12-13T10:26:25.946Z,-4.20
2022-12-13T10:27:59.075Z,-4.20
2022-12-13T10:29:31.934Z,-4.20
2022-12-13T10:31:05.620Z,-4.10
2022-12-13T10:32:49.069Z,-4.00
2022-12-13T10:34:24.603Z,-4.00
2022-12-13T10:36:10.377Z,-3.90
2022-12-13T10:37:43.347Z,-3.90
2022-12-13T10:39:18.705Z,-3.80
2022-12-13T10:40:51.822Z,-3.80
2022-12-13T10:42:32.164Z,-3.70
2022-12-13T10:44:25.792Z,-3.60
2022-12-13T10:46:00.623Z,-3.60
2022-12-13T10:47:33.741Z,-3.50
2022-12-13T10:49:17.163Z,-3.50
2022-12-13T10:51:02.366Z,-3.40
2022-12-13T10:52:43.084Z,-3.40
2022-12-13T10:54:25.312Z,-3.30
2022-12-13T10:56:02.154Z,-3.30
2022-12-13T10:57:36.661Z,-3.20
2022-12-13T10:59:17.225Z,-3.20
2022-12-13T11:00:50.659Z,-3.10
2022-12-13T11:02:34.487Z,-3.10
2022-12-13T11:04:26.934Z,-3.10
2022-12-13T11:06:05.253Z,-3.10
2022-12-13T11:07:38.371Z,-3.00
2022-12-13T11:09:22.988Z,-3.00
2022-12-13T11:11:01.301Z,-2.90
2022-12-13T11:12:35.896Z,-2.90
2022-12-13T11:14:19.792Z,-2.80
2022-12-13T11:16:19.173Z,-2.80
2022-12-13T11:17:55.152Z,-2.80
2022-12-13T11:19:34.415Z,-2.70
2022-12-13T11:21:08.362Z,-2.70
2022-12-13T11:22:41.597Z,-2.60
2022-12-13T11:24:22.867Z,-2.60
2022-12-13T11:25:58.403Z,-2.50
2022-12-13T11:28:02.608Z,-2.50
2022-12-13T11:30:00.617Z,-2.50
2022-12-13T11:31:44.680Z,-2.40
2022-12-13T11:33:27.580Z,-2.40
2022-12-13T11:35:09.195Z,-2.40
2022-12-13T11:36:51.540Z,-2.30
2022-12-13T11:38:32.292Z,-2.30
2022-12-13T11:40:13.861Z,-2.20
2022-12-13T11:41:55.279Z,-2.10
2022-12-13T11:43:35.046Z,-2.10
2022-12-13T11:45:22.075Z,-2.10
2022-12-13T11:46:59.466Z,-2.10
2022-12-13T11:48:41.608Z,-2.20
2022-12-13T11:50:32.659Z,-2.20
2022-12-13T11:52:14.574Z,-2.10
2022-12-13T11:53:56.210Z,-2.00
2022-12-13T11:55:36.801Z,-2.00
2022-12-13T11:57:20.744Z,-1.90
2022-12-13T11:59:09.587Z,-2.00
2022-12-13T12:00:49.068Z,-1.90
2022-12-13T12:02:31.621Z,-1.90
2022-12-13T12:04:17.819Z,-1.80
2022-12-13T12:05:56.389Z,-1.80
2022-12-13T12:07:35.679Z,-1.80
2022-12-13T12:09:14.275Z,-1.70
2022-12-13T12:10:50.266Z,-1.70
2022-12-13T12:12:31.134Z,-2.20
2022-12-13T12:14:11.556Z,-1.70
2022-12-13T12:15:50.250Z,-1.60
2022-12-13T12:17:31.258Z,-1.60
2022-12-13T12:19:13.474Z,-1.50
2022-12-13T12:21:00.264Z,-1.60
2022-12-13T12:22:40.945Z,-1.60
2022-12-13T12:24:23.465Z,-1.60
2022-12-13T12:26:05.149Z,-1.50
2022-12-13T12:27:46.660Z,-1.40
2022-12-13T12:29:46.381Z,-1.40
2022-12-13T12:31:28.574Z,-1.30
2022-12-13T12:33:12.651Z,-1.20
2022-12-13T12:34:54.604Z,-1.30
2022-12-13T12:36:40.852Z,-1.20
2022-12-13T12:38:28.038Z,-1.20
2022-12-13T12:40:52.071Z,-1.20
2022-12-13T12:43:13.999Z,-1.20
2022-12-13T12:44:49.455Z,-1.20
2022-12-13T12:47:08.679Z,-1.10
2022-12-13T12:49:13.192Z,-1.10
2022-12-13T12:50:51.716Z,-1.10
2022-12-13T12:52:34.853Z,-1.10
2022-12-13T12:54:21.841Z,-1.10
2022-12-13T12:56:08.592Z,-1.10
2022-12-13T12:58:04.586Z,-1.10
2022-12-13T12:59:49.514Z,-1.10
2022-12-13T13:01:43.517Z,-1.10
2022-12-13T13:03:26.805Z,-1.10
2022-12-13T13:05:09.077Z,-1.10
2022-12-13T13:06:45.992Z,-1.10
2022-12-13T13:08:28.896Z,-1.00
2022-12-13T13:10:16.381Z,-1.10
2022-12-13T13:11:58.030Z,-1.10
2022-12-13T13:13:46.028Z,-1.00
2022-12-13T13:15:53.654Z,-1.00
2022-12-13T13:17:47.070Z,-1.00
2022-12-13T13:19:42.056Z,-1.00
2022-12-13T13:21:49.592Z,-1.00
2022-12-13T13:23:44.080Z,-1.00
2022-12-13T13:25:30.421Z,-1.00
2022-12-13T13:27:30.519Z,-0.90
2022-12-13T13:29:32.054Z,-0.90
2022-12-13T13:31:08.886Z,-0.90
2022-12-13T13:32:42.564Z,-0.90
2022-12-13T13:34:24.403Z,-1.00
2022-12-13T13:35:57.358Z,-0.90
2022-12-13T13:37:47.553Z,-1.00
2022-12-13T13:39:37.282Z,-1.00
2022-12-13T13:41:55.152Z,-1.00
2022-12-13T13:43:33.098Z,-1.00
2022-12-13T13:45:25.143Z,-1.10
2022-12-13T13:47:16.216Z,-1.10
2022-12-13T13:49:02.593Z,-1.20
2022-12-13T13:51:20.431Z,-1.10
2022-12-13T13:53:07.727Z,-1.20
2022-12-13T13:55:15.466Z,-1.30
2022-12-13T13:58:07.767Z,-1.30
2022-12-13T14:00:09.472Z,-1.40
2022-12-13T14:02:11.289Z,-1.40
2022-12-13T14:04:22.463Z,-1.40
2022-12-13T14:06:41.751Z,-1.50
2022-12-13T14:08:35.837Z,-1.50
2022-12-13T14:10:26.417Z,-1.60
2022-12-13T14:12:33.663Z,-1.60
2022-12-13T14:14:42.639Z,-1.60
2022-12-13T14:17:14.183Z,-1.70
2022-12-13T14:19:18.734Z,-1.70
2022-12-13T14:21:03.132Z,-1.80
2022-12-13T14:22:41.486Z,-1.90
2022-12-13T14:24:22.069Z,-1.90
2022-12-13T14:26:12.510Z,-1.80
2022-12-13T14:27:49.893Z,-1.80
2022-12-13T14:29:28.656Z,-1.90
2022-12-13T14:31:01.874Z,-1.90
2022-12-13T14:32:39.319Z,-1.90
2022-12-13T14:34:24.463Z,-2.00
2022-12-13T14:36:00.041Z,-2.10
2022-12-13T14:37:35.927Z,-2.10
2022-12-13T14:39:24.950Z,-2.10
2022-12-13T14:41:00.843Z,-2.10
2022-12-13T14:42:35.652Z,-2.20
2022-12-13T14:44:15.303Z,-2.20
2022-12-13T14:45:57.522Z,-2.30
2022-12-13T14:47:31.484Z,-2.40
2022-12-13T14:49:07.731Z,-2.50
2022-12-13T14:50:44.875Z,-2.40
2022-12-13T14:52:26.203Z,-2.50
2022-12-13T14:54:01.121Z,-2.60
2022-12-13T14:55:36.339Z,-2.60
2022-12-13T14:57:17.327Z,-2.60
2022-12-13T14:58:54.946Z,-2.60
2022-12-13T15:00:31.284Z,-2.60
2022-12-13T15:02:06.203Z,-2.60
2022-12-13T15:03:39.248Z,-2.70
2022-12-13T15:05:28.588Z,-2.70
2022-12-13T15:07:09.011Z,-2.70
2022-12-13T15:08:46.216Z,-2.70
2022-12-13T15:10:24.342Z,-2.70
2022-12-13T15:12:14.653Z,-2.70
2022-12-13T15:13:52.684Z,-2.70
2022-12-13T15:15:30.163Z,-2.70
2022-12-13T15:17:04.558Z,-2.70
2022-12-13T15:18:38.318Z,-2.80
2022-12-13T15:20:26.231Z,-2.80
2022-12-13T15:22:02.276Z,-2.90
2022-12-13T15:23:49.266Z,-2.90
2022-12-13T15:25:23.097Z,-2.90
2022-12-13T15:26:58.097Z,-2.90
2022-12-13T15:28:34.585Z,-3.00
2022-12-13T15:30:14.055Z,-3.10
2022-12-13T15:31:49.253Z,-3.10
2022-12-13T15:33:30.872Z,-3.10
2022-12-13T15:35:16.622Z,-3.10
2022-12-13T15:36:49.752Z,-3.10
2022-12-13T15:38:28.182Z,-3.10
2022-12-13T15:40:09.723Z,-3.10
2022-12-13T15:41:46.224Z,-3.00
2022-12-13T15:43:22.719Z,-3.10
2022-12-13T15:44:57.822Z,-3.10
2022-12-13T15:46:33.353Z,-3.20
2022-12-13T15:48:06.777Z,-3.20
2022-12-13T15:49:41.358Z,-3.20
2022-12-13T15:51:28.902Z,-3.20
2022-12-13T15:53:05.970Z,-3.20
2022-12-13T15:54:39.316Z,-3.10
2022-12-13T15:56:34.158Z,-3.10
2022-12-13T15:58:25.550Z,-3.10
2022-12-13T16:00:30.772Z,-3.20
2022-12-13T16:02:12.023Z,-3.20
2022-12-13T16:03:46.817Z,-3.30
2022-12-13T16:05:29.212Z,-3.40
2022-12-13T16:07:02.595Z,-3.50
2022-12-13T16:08:39.132Z,-3.60
2022-12-13T16:10:20.243Z,-3.60
2022-12-13T16:11:57.833Z,-3.60
2022-12-13T16:13:33.591Z,-3.60
2022-12-13T16:15:28.807Z,-3.60
2022-12-13T16:17:08.292Z,-3.60
2022-12-13T16:18:47.179Z,-3.60
2022-12-13T16:20:22.614Z,-3.60
2022-12-13T16:21:56.322Z,-3.70
2022-12-13T16:23:29.616Z,-3.70
2022-12-13T16:25:02.588Z,-3.70
2022-12-13T16:26:35.779Z,-3.70
2022-12-13T16:28:12.442Z,-3.70
2022-12-13T16:29:45.887Z,-3.70
2022-12-13T16:31:19.480Z,-3.70
2022-12-13T16:33:18.035Z,-3.70
2022-12-13T16:34:46.127Z,-3.70
2022-12-13T16:36:19.023Z,-4.00
2022-12-13T16:37:53.551Z,-3.70
2022-12-13T16:39:33.529Z,-3.70
2022-12-13T16:41:09.322Z,-3.80
2022-12-13T16:42:42.702Z,-3.80
2022-12-13T16:44:24.495Z,-3.80
2022-12-13T16:45:57.653Z,-3.70
2022-12-13T16:47:41.835Z,-3.70
2022-12-13T16:49:23.173Z,-3.70
2022-12-13T16:50:57.676Z,-3.70
2022-12-13T16:52:31.077Z,-3.60
2022-12-13T16:54:04.338Z,-3.60
2022-12-13T16:55:37.422Z,-3.60
2022-12-13T16:57:10.488Z,-3.50
2022-12-13T16:58:49.670Z,-3.50
2022-12-13T17:00:24.494Z,-3.40
2022-12-13T17:01:57.494Z,-3.40
2022-12-13T17:03:30.391Z,-3.30
2022-12-13T17:05:03.623Z,-3.30
2022-12-13T17:06:36.504Z,-3.30
2022-12-13T17:08:11.656Z,-3.30
2022-12-13T17:09:44.812Z,-3.30
2022-12-13T17:11:18.497Z,-3.30
2022-12-13T17:12:51.642Z,-3.20
2022-12-13T17:14:24.559Z,-3.20
2022-12-13T17:15:59.445Z,-3.20
2022-12-13T17:17:33.025Z,-3.20
2022-12-13T17:19:06.335Z,-3.20
2022-12-13T17:20:39.280Z,-3.20
2022-12-13T17:22:12.254Z,-3.20
2022-12-13T17:23:45.139Z,-3.20
2022-12-13T17:25:18.260Z,-3.20
2022-12-13T17:26:54.820Z,-3.20
2022-12-13T17:28:28.179Z,-3.30
2022-12-13T17:30:01.907Z,-3.20
2022-12-13T17:31:36.487Z,-3.30
2022-12-13T17:33:11.954Z,-3.20
2022-12-13T17:34:45.009Z,-3.30
2022-12-13T17:36:18.685Z,-3.30
2022-12-13T17:37:51.632Z,-3.30
2022-12-13T17:39:25.449Z,-3.20
2022-12-13T17:40:58.379Z,-3.40
2022-12-13T17:42:33.897Z,-3.40
2022-12-13T17:44:07.011Z,-3.50
2022-12-13T17:45:43.713Z,-3.50
2022-12-13T17:47:18.098Z,-3.50
2022-12-13T17:48:52.356Z,-3.50
2022-12-13T17:50:25.434Z,-3.60
2022-12-13T17:51:58.847Z,-3.60
2022-12-13T17:53:31.619Z,-3.70
2022-12-13T17:55:04.822Z,-3.70
2022-12-13T17:56:38.147Z,-3.80
2022-12-13T17:58:10.971Z,-3.90
2022-12-13T17:59:44.141Z,-3.90
2022-12-13T18:01:19.477Z,-4.00
2022-12-13T18:02:54.964Z,-4.00
2022-12-13T18:04:28.579Z,-4.10
2022-12-13T18:06:01.723Z,-4.20
2022-12-13T18:07:34.711Z,-4.20
2022-12-13T18:09:08.217Z,-4.00
2022-12-13T18:10:41.196Z,-3.90
2022-12-13T18:12:15.613Z,-4.30
2022-12-13T18:13:48.997Z,-4.30
2022-12-13T18:15:28.193Z,-4.30
2022-12-13T18:17:01.339Z,-4.20
2022-12-13T18:18:36.262Z,-4.30
2022-12-13T18:20:10.039Z,-4.30
2022-12-13T18:21:44.128Z,-4.30
2022-12-13T18:23:17.911Z,-4.30
2022-12-13T18:24:51.012Z,-4.30
2022-12-13T18:26:25.149Z,-4.30
2022-12-13T18:28:01.083Z,-4.30
2022-12-13T18:29:34.330Z,-4.30
2022-12-13T18:31:09.529Z,-4.30
2022-12-13T18:32:42.792Z,-4.40
2022-12-13T18:34:17.196Z,-4.40
2022-12-13T18:35:50.169Z,-3.80
2022-12-13T18:37:23.106Z,-4.50
2022-12-13T18:38:56.917Z,-4.50
2022-12-13T18:40:29.795Z,-4.50
2022-12-13T18:42:02.828Z,-4.60
2022-12-13T18:43:36.002Z,-4.60
2022-12-13T18:45:09.338Z,-4.70
2022-12-13T18:46:46.068Z,-4.70
2022-12-13T18:48:19.393Z,-4.70
2022-12-13T18:49:55.160Z,-4.70
2022-12-13T18:51:29.085Z,-4.80
2022-12-13T18:53:02.112Z,-4.70
2022-12-13T18:54:35.396Z,-4.70
2022-12-13T18:56:16.173Z,-4.70
2022-12-13T18:57:51.896Z,-4.60
2022-12-13T18:59:24.953Z,-4.50
2022-12-13T19:00:58.335Z,-4.40
2022-12-13T19:02:34.439Z,-4.30
2022-12-13T19:04:07.952Z,-4.30
2022-12-13T19:05:42.327Z,-4.20
2022-12-13T19:07:15.696Z,-4.10
2022-12-13T19:08:49.213Z,-4.20
2022-12-13T19:10:22.192Z,-4.10
2022-12-13T19:11:55.240Z,-4.00
2022-12-13T19:13:29.472Z,-3.80
2022-12-13T19:15:02.801Z,-4.00
2022-12-13T19:16:35.748Z,-3.90
2022-12-13T19:18:08.776Z,-3.80
2022-12-13T19:19:41.833Z,-3.70
2022-12-13T19:21:23.625Z,-3.70
2022-12-13T19:22:56.628Z,-3.60
2022-12-13T19:24:29.560Z,-3.60
2022-12-13T19:26:06.073Z,-3.60
2022-12-13T19:27:38.998Z,-3.60
2022-12-13T19:29:12.005Z,-3.60
2022-12-13T19:30:46.411Z,-3.60
2022-12-13T19:32:19.352Z,-3.60
2022-12-13T19:33:52.353Z,-3.60
2022-12-13T19:35:25.392Z,-3.60
2022-12-13T19:37:05.911Z,-3.60
2022-12-13T19:38:39.809Z,-3.60
2022-12-13T19:40:12.699Z,-3.60
2022-12-13T19:41:45.784Z,-3.60
2022-12-13T19:43:20.793Z,-3.60
2022-12-13T19:44:54.071Z,-3.60
2022-12-13T19:46:27.209Z,-3.50
2022-12-13T19:48:00.198Z,-3.60
2022-12-13T19:49:33.121Z,-3.60
2022-12-13T19:51:07.903Z,-3.60
2022-12-13T19:52:42.275Z,-3.60
2022-12-13T19:54:15.161Z,-3.60
2022-12-13T19:55:48.425Z,-3.60
2022-12-13T19:57:21.765Z,-3.60
2022-12-13T19:58:54.745Z,-3.50
2022-12-13T20:00:28.328Z,-3.50
2022-12-13T20:02:01.353Z,-3.50
2022-12-13T20:03:35.218Z,-3.50
2022-12-13T20:05:08.972Z,-3.60
2022-12-13T20:06:41.946Z,-3.60
2022-12-13T20:08:16.300Z,-3.60
2022-12-13T20:09:49.276Z,-3.60
2022-12-13T20:11:24.025Z,-3.60
2022-12-13T20:12:57.315Z,-3.60
2022-12-13T20:14:30.403Z,-3.60
2022-12-13T20:16:04.396Z,-3.60
2022-12-13T20:17:37.717Z,-3.60
2022-12-13T20:19:11.004Z,-3.60
2022-12-13T20:22:36.875Z,-3.60
2022-12-13T20:24:11.959Z,-3.60
2022-12-13T20:25:45.254Z,-3.60
2022-12-13T20:27:20.119Z,-3.60
2022-12-13T20:28:53.195Z,-3.30
2022-12-13T20:30:26.076Z,-3.60
2022-12-13T20:31:59.011Z,-3.70
2022-12-13T20:33:32.241Z,-3.70
2022-12-13T20:35:05.842Z,-3.70
2022-12-13T20:36:39.022Z,-3.70
2022-12-13T20:38:11.896Z,-3.70
2022-12-13T20:39:46.252Z,-3.80
2022-12-13T20:41:19.122Z,-3.80
2022-12-13T20:42:51.999Z,-3.80
2022-12-13T20:44:25.021Z,-3.80
2022-12-13T20:46:04.261Z,-3.80
2022-12-13T20:47:38.092Z,-3.80
2022-12-13T20:49:11.499Z,-3.80
2022-12-13T20:50:44.419Z,-3.80
2022-12-13T20:52:21.796Z,-3.80
2022-12-13T20:53:55.393Z,-3.80
2022-12-13T20:55:29.594Z,-3.80
2022-12-13T20:57:02.405Z,-3.80
2022-12-13T20:58:39.921Z,-3.80
2022-12-13T21:00:15.015Z,-3.80
2022-12-13T21:01:48.863Z,-3.70
2022-12-13T21:03:22.411Z,-3.80
2022-12-13T21:04:55.374Z,-3.70